This is the latest recevied weather packets stored in our database for station/object E20ZNR-1. If no packets are shown the sender has not sent any weather packets the latest 10 day(s).
| Time | Temp. | Humidity | Pressure | Rain* | Wind** | Luminosity | Snow |
|---|---|---|---|---|---|---|---|
| 1777773353 | 44.44° C | 35% | 1006 hPa | - | - | 0 W/m² | - |
| 1777772428 | 51.67° C | 28% | 1006 hPa | - | - | 0 W/m² | - |
| 1777771504 | 52.22° C | 28% | 1006 hPa | - | - | 0 W/m² | - |
| 1777770579 | 51.11° C | 28% | 1006 hPa | - | - | 0 W/m² | - |
| 1777769654 | 50.56° C | 32% | 1006 hPa | - | - | 0 W/m² | - |
| 1777768728 | 48.33° C | 39% | 1006 hPa | - | - | 0 W/m² | - |
| 1777767804 | 43.89° C | 48% | 1006 hPa | - | - | 0 W/m² | - |
| 1777766879 | 41.67° C | 50% | 1006 hPa | - | - | 0 W/m² | - |
| 1777765954 | 39.44° C | 66% | 1006 hPa | - | - | 0 W/m² | - |
| 1777765029 | 35.56° C | 81% | 1006 hPa | - | - | 0 W/m² | - |
| 1777764104 | 30.56° C | 99% | 1005 hPa | - | - | 0 W/m² | - |
| 1777763179 | 28.33° C | 99% | 1005 hPa | - | - | 0 W/m² | - |
| 1777762254 | 28.33° C | 99% | 1005 hPa | - | - | 0 W/m² | - |
| 1777761329 | 28.33° C | 99% | 1005 hPa | - | - | 0 W/m² | - |
| 1777760403 | 28.33° C | 99% | 1005 hPa | - | - | 0 W/m² | - |
| 1777759479 | 28.33° C | 99% | 1005 hPa | - | - | 0 W/m² | - |
| 1777758552 | 28.33° C | 99% | 1005 hPa | - | - | 0 W/m² | - |
| 1777757627 | 28.33° C | 99% | 1004 hPa | - | - | 0 W/m² | - |
| 1777756702 | 28.33° C | 99% | 1004 hPa | - | - | 0 W/m² | - |
| 1777755777 | 28.33° C | 99% | 1004 hPa | - | - | 0 W/m² | - |
| 1777754852 | 28.33° C | 99% | 1004 hPa | - | - | 0 W/m² | - |
| 1777753927 | 28.89° C | 99% | 1004 hPa | - | - | 0 W/m² | - |
| 1777753002 | 28.89° C | 99% | 1004 hPa | - | - | 0 W/m² | - |
| 1777752077 | 28.89° C | 99% | 1004 hPa | - | - | 0 W/m² | - |
| 1777751151 | 28.89° C | 98% | 1004 hPa | - | - | 0 W/m² | - |
* Rain since midnight (hover to see other rain measurements)
** Current wind speed in m/s (hover to see current wind gust speed)